createdAt,value
2022-08-18T00:03:00.696Z,0.80
2022-08-18T00:08:04.923Z,0.77
2022-08-18T00:13:12.038Z,0.63
2022-08-18T00:18:19.740Z,0.70
2022-08-18T00:23:28.190Z,0.60
2022-08-18T00:28:35.077Z,0.73
2022-08-18T00:33:43.742Z,0.70
2022-08-18T00:38:50.686Z,0.70
2022-08-18T00:44:00.146Z,0.70
2022-08-18T00:49:07.739Z,0.80
2022-08-18T00:54:17.756Z,0.70
2022-08-18T00:59:27.019Z,0.80
2022-08-18T01:04:36.811Z,0.70
2022-08-18T01:09:45.328Z,0.80
2022-08-18T01:14:52.609Z,1.00
2022-08-18T01:20:01.943Z,0.60
2022-08-18T01:25:12.301Z,0.70
2022-08-18T01:30:21.387Z,0.70
2022-08-18T01:35:29.306Z,0.80
2022-08-18T01:41:23.602Z,0.90
2022-08-18T01:45:46.252Z,0.80
2022-08-18T01:50:54.683Z,0.70
2022-08-18T01:56:02.544Z,0.80
2022-08-18T02:01:10.976Z,0.80
2022-08-18T02:06:32.259Z,0.77
2022-08-18T02:11:28.222Z,0.70
2022-08-18T02:16:35.591Z,0.70
2022-08-18T02:21:42.495Z,0.70
2022-08-18T02:26:49.340Z,0.90
2022-08-18T02:31:56.699Z,0.70
2022-08-18T02:37:04.730Z,0.80
2022-08-18T02:42:13.219Z,0.60
2022-08-18T02:47:22.150Z,0.83
2022-08-18T02:52:30.878Z,0.70
2022-08-18T02:57:37.830Z,0.70
2022-08-18T03:02:47.308Z,0.73
2022-08-18T03:07:54.386Z,0.83
2022-08-18T03:13:01.355Z,0.70
2022-08-18T03:18:08.357Z,0.70
2022-08-18T03:23:15.293Z,0.70
2022-08-18T03:28:22.846Z,0.80
2022-08-18T03:33:29.802Z,0.70
2022-08-18T03:38:37.054Z,0.70
2022-08-18T03:43:51.258Z,0.70
2022-08-18T03:48:53.574Z,0.60
2022-08-18T03:54:03.288Z,0.67
2022-08-18T03:59:13.759Z,0.70
2022-08-18T04:04:23.690Z,0.60
2022-08-18T04:09:32.874Z,0.60
2022-08-18T04:14:42.654Z,0.70
2022-08-18T04:19:49.984Z,0.60
2022-08-18T04:24:58.072Z,0.70
2022-08-18T04:30:05.586Z,0.70
2022-08-18T04:35:14.244Z,0.60
2022-08-18T04:40:24.951Z,0.60
2022-08-18T04:45:30.272Z,0.80
2022-08-18T04:50:39.518Z,0.70
2022-08-18T04:55:49.038Z,0.60
2022-08-18T05:00:58.984Z,0.83
2022-08-18T05:06:08.159Z,0.70
2022-08-18T05:11:15.947Z,0.80
2022-08-18T05:16:27.583Z,0.70
2022-08-18T05:21:32.830Z,0.80
2022-08-18T05:26:41.890Z,0.80
2022-08-18T05:31:51.100Z,0.80
2022-08-18T05:36:59.403Z,0.80
2022-08-18T05:42:09.638Z,0.70
2022-08-18T05:47:19.432Z,0.80
2022-08-18T05:52:29.291Z,0.80
2022-08-18T05:57:39.196Z,0.70
2022-08-18T06:02:48.150Z,0.90
2022-08-18T06:07:58.078Z,1.00
2022-08-18T06:13:07.757Z,1.00
2022-08-18T06:18:17.557Z,0.80
2022-08-18T06:23:25.641Z,0.80
2022-08-18T06:28:35.684Z,0.80
2022-08-18T06:33:45.909Z,0.80
2022-08-18T06:38:56.729Z,0.70
2022-08-18T06:44:06.791Z,0.97
2022-08-18T06:49:16.853Z,0.80
2022-08-18T06:54:23.216Z,1.00
2022-08-18T06:59:33.529Z,1.10
2022-08-18T07:04:41.751Z,0.90
2022-08-18T07:09:49.979Z,0.90
2022-08-18T07:15:00.249Z,0.80
2022-08-18T07:20:09.331Z,0.97
2022-08-18T07:25:19.446Z,0.90
2022-08-18T07:30:29.641Z,0.90
2022-08-18T07:35:39.741Z,0.90
2022-08-18T07:40:51.225Z,1.20
2022-08-18T07:46:01.351Z,1.10
2022-08-18T07:51:10.688Z,1.00
2022-08-18T07:56:19.226Z,1.20
2022-08-18T08:01:30.212Z,1.00
2022-08-18T08:06:47.781Z,1.20
2022-08-18T08:11:53.943Z,1.10
2022-08-18T08:17:04.001Z,1.20
2022-08-18T08:22:14.187Z,1.40
2022-08-18T08:27:24.339Z,1.10
2022-08-18T08:32:34.365Z,1.10
2022-08-18T08:37:44.866Z,1.60
2022-08-18T08:42:56.126Z,1.60
2022-08-18T08:48:09.317Z,1.60
2022-08-18T08:53:17.110Z,1.67
2022-08-18T08:58:27.166Z,1.80
2022-08-18T09:03:37.485Z,1.50
2022-08-18T09:08:47.479Z,1.60
2022-08-18T09:13:57.558Z,1.30
2022-08-18T09:19:05.575Z,1.63
2022-08-18T09:24:15.652Z,1.50
2022-08-18T09:29:25.591Z,2.10
2022-08-18T09:34:35.808Z,1.87
2022-08-18T09:39:53.131Z,2.20
2022-08-18T09:44:56.119Z,2.20
2022-08-18T09:50:04.187Z,2.10
2022-08-18T09:55:13.977Z,2.07
2022-08-18T10:00:26.642Z,2.07
2022-08-18T10:05:33.158Z,2.07
2022-08-18T10:11:00.755Z,1.93
2022-08-18T10:15:56.282Z,2.20
2022-08-18T10:21:07.785Z,2.20
2022-08-18T10:26:19.109Z,2.20
2022-08-18T10:31:28.125Z,2.60
2022-08-18T10:36:38.125Z,2.13
2022-08-18T10:41:49.576Z,2.20
2022-08-18T10:46:59.508Z,2.30
2022-08-18T10:52:07.581Z,2.40
2022-08-18T10:57:17.474Z,2.13
2022-08-18T11:02:27.665Z,2.70
2022-08-18T11:07:38.035Z,2.50
2022-08-18T11:12:49.439Z,2.70
2022-08-18T11:18:01.003Z,2.90
2022-08-18T11:23:10.946Z,3.20
2022-08-18T11:28:22.702Z,2.67
2022-08-18T11:33:33.389Z,2.63
2022-08-18T11:38:50.228Z,2.60
2022-08-18T11:44:02.585Z,2.67
2022-08-18T11:49:15.610Z,2.70
2022-08-18T11:54:25.587Z,2.63
2022-08-18T11:59:55.077Z,2.97
2022-08-18T12:04:45.631Z,2.97
2022-08-18T12:10:16.463Z,3.00
2022-08-18T12:15:13.969Z,3.00
2022-08-18T12:20:17.621Z,2.90
2022-08-18T12:25:25.814Z,3.20
2022-08-18T12:30:33.149Z,3.27
2022-08-18T12:35:44.411Z,3.63
2022-08-18T12:40:52.233Z,3.77
2022-08-18T12:46:00.317Z,3.30
2022-08-18T12:51:08.794Z,3.33
2022-08-18T12:56:20.386Z,3.40
2022-08-18T13:01:28.191Z,3.00
2022-08-18T13:06:40.615Z,3.37
2022-08-18T13:11:46.602Z,3.50
2022-08-18T13:16:55.495Z,3.20
2022-08-18T13:22:02.677Z,3.03
2022-08-18T13:27:13.771Z,3.40
2022-08-18T13:32:21.579Z,3.40
2022-08-18T13:37:30.374Z,3.03
2022-08-18T13:42:50.701Z,2.90
2022-08-18T13:47:52.021Z,3.07
2022-08-18T13:53:01.394Z,3.40
2022-08-18T13:58:17.537Z,3.30
2022-08-18T14:03:31.108Z,3.30
2022-08-18T14:08:27.665Z,3.20
2022-08-18T14:13:38.433Z,3.60
2022-08-18T14:18:45.752Z,3.40
2022-08-18T14:23:54.610Z,3.10
2022-08-18T14:29:05.202Z,3.03
2022-08-18T14:34:11.017Z,3.20
2022-08-18T14:39:18.753Z,2.90
2022-08-18T14:44:31.749Z,3.00
2022-08-18T14:49:43.039Z,3.30
2022-08-18T14:54:46.161Z,3.00
2022-08-18T14:59:53.586Z,2.90
2022-08-18T15:05:02.458Z,3.10
2022-08-18T15:10:19.746Z,3.00
2022-08-18T15:15:25.081Z,3.30
2022-08-18T15:20:32.828Z,3.03
2022-08-18T15:25:42.710Z,2.97
2022-08-18T15:30:52.065Z,3.53
2022-08-18T15:36:01.160Z,2.93
2022-08-18T15:41:09.431Z,3.53
2022-08-18T15:46:17.032Z,3.60
2022-08-18T15:51:24.398Z,3.37
2022-08-18T15:56:33.135Z,3.43
2022-08-18T16:01:42.966Z,3.10
2022-08-18T16:06:50.407Z,3.90
2022-08-18T16:12:00.465Z,3.40
2022-08-18T16:17:13.132Z,3.90
2022-08-18T16:22:16.714Z,4.13
2022-08-18T16:27:23.853Z,3.90
2022-08-18T16:32:31.703Z,4.40
2022-08-18T16:37:39.451Z,4.60
2022-08-18T16:42:48.126Z,3.93
2022-08-18T16:47:57.610Z,4.23
2022-08-18T16:53:05.326Z,4.33
2022-08-18T16:58:15.743Z,4.23
2022-08-18T17:03:25.640Z,5.10
2022-08-18T17:08:34.512Z,4.73
2022-08-18T17:13:43.538Z,4.40
2022-08-18T17:18:56.666Z,4.00
2022-08-18T17:24:06.409Z,3.90
2022-08-18T17:29:13.826Z,5.10
2022-08-18T17:34:24.169Z,5.53
2022-08-18T17:39:34.127Z,4.77
2022-08-18T17:44:52.138Z,4.20
2022-08-18T17:50:27.346Z,5.40
2022-08-18T17:55:07.923Z,5.00
2022-08-18T18:00:17.622Z,5.07
2022-08-18T18:05:26.690Z,5.20
2022-08-18T18:10:40.188Z,4.90
2022-08-18T18:15:48.461Z,5.63
2022-08-18T18:20:58.360Z,5.20
2022-08-18T18:26:08.191Z,4.93
2022-08-18T18:31:18.250Z,5.10
2022-08-18T18:36:29.025Z,5.60
2022-08-18T18:41:39.701Z,5.20
2022-08-18T18:46:45.691Z,4.47
2022-08-18T18:51:53.918Z,4.00
2022-08-18T18:57:03.429Z,5.10
2022-08-18T19:02:13.686Z,4.90
2022-08-18T19:07:24.788Z,6.07
2022-08-18T19:12:34.785Z,3.50
2022-08-18T19:17:43.850Z,4.10
2022-08-18T19:22:54.966Z,5.57
2022-08-18T19:28:05.459Z,5.30
2022-08-18T19:33:16.661Z,4.87
2022-08-18T19:38:28.449Z,3.00
2022-08-18T19:43:38.725Z,3.03
2022-08-18T19:48:47.441Z,3.00
2022-08-18T19:53:58.014Z,2.30
2022-08-18T19:59:15.409Z,2.10
2022-08-18T20:04:19.917Z,1.90
2022-08-18T20:09:30.278Z,1.90
2022-08-18T20:14:40.398Z,2.17
2022-08-18T20:19:48.604Z,2.10
2022-08-18T20:24:58.360Z,2.23
2022-08-18T20:30:08.993Z,2.10
2022-08-18T20:35:19.132Z,2.20
2022-08-18T20:40:29.241Z,2.50
2022-08-18T20:45:42.569Z,3.20
2022-08-18T20:50:47.708Z,3.50
2022-08-18T20:55:57.814Z,6.47
2022-08-18T21:01:06.357Z,1.80
2022-08-18T21:06:15.990Z,1.80
2022-08-18T21:11:29.816Z,1.70
2022-08-18T21:16:38.913Z,1.80
2022-08-18T21:21:46.324Z,1.63
2022-08-18T21:26:56.919Z,1.70
2022-08-18T21:32:07.507Z,1.53
2022-08-18T21:37:18.861Z,1.67
2022-08-18T21:42:28.112Z,1.40
2022-08-18T21:47:36.577Z,1.30
2022-08-18T21:52:48.453Z,1.50
2022-08-18T21:57:58.708Z,1.50
2022-08-18T22:03:10.737Z,1.07
2022-08-18T22:08:20.270Z,1.10
2022-08-18T22:13:30.817Z,1.40
2022-08-18T22:18:40.364Z,1.07
2022-08-18T22:23:49.992Z,1.40
2022-08-18T22:28:59.824Z,1.20
2022-08-18T22:34:10.044Z,1.30
2022-08-18T22:39:20.062Z,1.27
2022-08-18T22:44:28.225Z,1.20
2022-08-18T22:49:37.265Z,1.73
2022-08-18T22:54:44.465Z,1.20
2022-08-18T22:59:51.694Z,1.00
2022-08-18T23:04:59.046Z,1.30
2022-08-18T23:10:13.989Z,1.10
2022-08-18T23:15:19.306Z,1.20
2022-08-18T23:20:26.835Z,1.20
2022-08-18T23:25:34.149Z,1.40
2022-08-18T23:30:43.682Z,1.10
2022-08-18T23:35:50.733Z,1.00
2022-08-18T23:40:58.177Z,1.03
2022-08-18T23:46:06.532Z,1.03
2022-08-18T23:51:13.650Z,1.10
2022-08-18T23:56:20.791Z,1.00
